Time;durP1;ratioP1;P1;durP2;ratioP2;P2;SDS_P1;SDS_P2;PMS_P1;PMS_P2;Temp;Humidity;BMP_temperature;BMP_pressure;BME280_temperature;BME280_humidity;BME280_pressure;Samples;Min_cycle;Max_cycle;Signal;HPM_P1;HPM_P2
2022/04/03 00:01:15;;;;;;;0.87;0.73;;;;;;;;;;20746236;28;20552;-69
2022/04/03 00:11:17;;;;;;;0.47;0.43;;;;;;;;;;20745947;28;20215;-69
2022/04/03 00:21:19;;;;;;;0.93;0.77;;;2.80;99.90;;;;;;20745408;28;20274;-69
2022/04/03 00:31:21;;;;;;;0.50;0.50;;;;;;;;;;20744145;28;20265;-69
2022/04/03 00:41:23;;;;;;;0.73;0.73;;;;;;;;;;20743697;28;20211;-70
2022/04/03 00:51:25;;;;;;;0.50;0.40;;;;;;;;;;20741916;28;20210;-69
2022/04/03 01:01:26;;;;;;;0.60;0.60;;;;;;;;;;20743323;28;20219;-69
2022/04/03 01:11:28;;;;;;;1.07;0.70;;;;;;;;;;20738726;28;20768;-69
2022/04/03 01:21:30;;;;;;;0.60;0.60;;;;;;;;;;20735660;28;20290;-69
2022/04/03 01:31:31;;;;;;;1.33;0.60;;;;;;;;;;20740050;28;20211;-70
2022/04/03 01:41:33;;;;;;;1.43;1.10;;;;;;;;;;20759038;23;20288;-66
2022/04/03 01:51:35;;;;;;;0.67;0.63;;;;;;;;;;20636578;28;20773;-66
2022/04/03 02:01:37;;;;;;;6.73;1.00;;;;;;;;;;20627252;28;20228;-66
2022/04/03 02:11:40;;;;;;;0.80;0.60;;;;;;;;;;20626626;28;20631;-66
2022/04/03 02:21:41;;;;;;;1.07;0.80;;;;;;;;;;20626066;28;20247;-66
2022/04/03 02:31:43;;;;;;;1.30;0.80;;;;;;;;;;20625280;28;20270;-66
2022/04/03 02:41:45;;;;;;;1.23;0.70;;;;;;;;;;20624907;28;20255;-66
2022/04/03 02:51:47;;;;;;;0.90;0.60;;;;;;;;;;20624171;28;20212;-65
2022/04/03 03:01:49;;;;;;;0.43;0.40;;;;;;;;;;20622668;28;20600;-66
2022/04/03 03:11:51;;;;;;;0.50;0.50;;;;;;;;;;20622291;28;20211;-65
2022/04/03 03:21:52;;;;;;;1.07;0.87;;;;;;;;;;20636531;28;20653;-66
2022/04/03 03:31:54;;;;;;;1.50;0.73;;;;;;;;;;20633586;28;20235;-66
2022/04/03 03:41:56;;;;;;;0.93;0.87;;;;;;;;;;20607262;28;20294;-65
2022/04/03 03:51:58;;;;;;;0.70;0.67;;;;;;;;;;20611782;28;20583;-66
2022/04/03 04:02:01;;;;;;;0.87;0.70;;;2.70;99.90;;;;;;20635609;28;20216;-64
2022/04/03 04:12:04;;;;;;;0.60;0.57;;;;;;;;;;20638822;28;20607;-64
2022/04/03 04:22:06;;;;;;;0.60;0.60;;;;;;;;;;20616200;28;20274;-66
2022/04/03 04:32:07;;;;;;;1.20;0.63;;;2.40;99.90;;;;;;20647156;28;20212;-66
2022/04/03 04:42:09;;;;;;;0.53;0.53;;;;;;;;;;20630845;28;20642;-66
2022/04/03 04:52:11;;;;;;;0.87;0.70;;;;;;;;;;20630723;28;20212;-66
2022/04/03 05:02:13;;;;;;;1.10;0.83;;;;;;;;;;20646078;28;20274;-66
2022/04/03 05:12:15;;;;;;;3.00;0.80;;;2.10;99.90;;;;;;20629650;28;20274;-66
2022/04/03 05:22:17;;;;;;;1.03;0.70;;;;;;;;;;20628823;28;20219;-67
2022/04/03 05:32:29;;;;;;;0.50;0.50;;;2.30;99.90;;;;;;20612851;28;20211;-66
2022/04/03 05:42:33;;;;;;;0.60;0.60;;;;;;;;;;20627508;28;20223;-66
2022/04/03 05:52:43;;;;;;;1.00;0.60;;;2.40;99.90;;;;;;20627391;28;20208;-66
2022/04/03 06:02:48;;;;;;;0.80;0.60;;;;;;;;;;20610516;28;20798;-67
2022/04/03 06:12:51;;;;;;;1.07;0.80;;;2.40;99.90;;;;;;20638595;28;20782;-67
2022/04/03 06:22:53;;;;;;;0.87;0.73;;;;;;;;;;20642576;28;20224;-67
2022/04/03 06:32:54;;;;;;;0.60;0.60;;;;;;;;;;20642178;28;20270;-67
2022/04/03 06:42:56;;;;;;;1.27;1.10;;;;;;;;;;20637207;28;20232;-67
2022/04/03 06:52:58;;;;;;;0.87;0.67;;;;;;;;;;20605622;28;20216;-66
2022/04/03 07:03:00;;;;;;;1.23;0.77;;;;;;;;;;20645966;28;20749;-66
2022/04/03 07:13:02;;;;;;;0.97;0.60;;;;;;;;;;20608974;28;20274;-66
2022/04/03 07:23:04;;;;;;;0.80;0.67;;;;;;;;;;20642270;28;20223;-66
2022/04/03 07:33:05;;;;;;;1.47;0.90;;;;;;;;;;20592892;28;20839;-67
2022/04/03 07:43:08;;;;;;;0.87;0.60;;;;;;;;;;20616354;28;20231;-65
2022/04/03 07:53:09;;;;;;;1.10;0.80;;;;;;;;;;20624101;28;20212;-67
2022/04/03 08:03:11;;;;;;;0.73;0.67;;;;;;;;;;20618936;28;20254;-65
2022/04/03 08:13:14;;;;;;;1.43;0.90;;;;;;;;;;20638074;28;20227;-64
2022/04/03 08:23:15;;;;;;;1.00;0.70;;;;;;;;;;20619949;28;20271;-66
2022/04/03 08:33:17;;;;;;;0.93;0.63;;;;;;;;;;20636692;28;20207;-65
2022/04/03 08:43:22;;;;;;;1.17;0.87;;;;;;;;;;20649895;28;20706;-65
2022/04/03 08:53:26;;;;;;;0.77;0.60;;;;;;;;;;20638335;28;20656;-65
2022/04/03 09:03:29;;;;;;;1.57;0.90;;;;;;;;;;20640509;28;20236;-65
2022/04/03 09:24:48;;;;;;;1.17;0.67;;;;;;;;;;20748995;28;20235;-83
2022/04/03 09:35:04;;;;;;;1.03;0.60;;;;;;;;;;20709527;28;20211;-84
2022/04/03 09:45:25;;;;;;;2.83;0.80;;;;;;;;;;20716888;28;20231;-83
2022/04/03 10:05:51;;;;;;;1.77;0.80;;;;;;;;;;20958062;28;20564;-66
2022/04/03 10:15:54;;;;;;;0.50;0.50;;;;;;;;;;20858876;28;20254;-66
2022/04/03 10:25:57;;;;;;;0.57;0.57;;;5.20;99.90;;;;;;20859665;28;20576;-66
2022/04/03 10:36:13;;;;;;;5.20;0.67;;;5.40;99.90;;;;;;20842545;28;20202;-66
2022/04/03 10:46:15;;;;;;;0.60;0.50;;;;;;;;;;20842732;28;20222;-66
2022/04/03 10:56:24;;;;;;;1.23;0.87;;;;;;;;;;20874359;28;20218;-66
2022/04/03 11:06:34;;;;;;;0.60;0.60;;;5.90;99.90;;;;;;20857181;28;20280;-66
2022/04/03 11:16:55;;;;;;;0.90;0.50;;;6.30;99.90;;;;;;20789717;28;20268;-65
2022/04/03 11:27:01;;;;;;;0.90;0.40;;;;;;;;;;20800464;28;20289;-65
2022/04/03 11:37:10;;;;;;;2.27;0.60;;;8.40;99.90;;;;;;20802260;28;20276;-65
2022/04/03 11:47:24;;;;;;;0.90;0.50;;;9.30;99.90;;;;;;20815706;28;20292;-66
2022/04/03 11:57:26;;;;;;;0.47;0.40;;;9.30;99.90;;;;;;20815536;28;20245;-66
2022/04/03 12:07:33;;;;;;;0.93;0.57;;;9.90;99.90;;;;;;20819358;28;20257;-65
2022/04/03 12:17:41;;;;;;;0.60;0.50;;;9.70;99.90;;;;;;20816867;28;20222;-64
2022/04/03 12:27:45;;;;;;;2.13;0.40;;;9.80;99.90;;;;;;20818884;28;20230;-65
2022/04/03 12:37:50;;;;;;;0.60;0.40;;;;;;;;;;20835196;28;20199;-65
2022/04/03 12:47:55;;;;;;;0.50;0.40;;;10.10;95.10;;;;;;20811461;28;20288;-65
2022/04/03 13:08:18;;;;;;;0.40;0.30;;;;;;;;;;20826049;28;20577;-66
2022/04/03 13:18:21;;;;;;;0.90;0.40;;;;;;;;;;20808849;28;20202;-66
2022/04/03 13:28:23;;;;;;;0.50;0.30;;;;;;;;;;20808358;28;20222;-66
2022/04/03 13:38:26;;;;;;;0.60;0.40;;;;;;;;;;20806333;28;20751;-66
2022/04/03 13:48:32;;;;;;;1.93;0.40;;;;;;;;;;20790913;28;20284;-66
2022/04/03 13:58:34;;;;;;;1.40;0.50;;;;;;;;;;20790700;28;20222;-67
2022/04/03 14:08:36;;;;;;;1.20;0.50;;;;;;;;;;20789377;28;20623;-67
2022/04/03 14:18:38;;;;;;;1.17;0.33;;;;;;;;;;20804991;28;20284;-67
2022/04/03 14:28:40;;;;;;;0.50;0.30;;;;;;;;;;20788860;28;20222;-67
2022/04/03 14:38:41;;;;;;;1.30;0.47;;;;;;;;;;20787866;28;20678;-67
2022/04/03 14:48:43;;;;;;;0.73;0.57;;;;;;;;;;20796984;28;20690;-67
2022/04/03 14:58:46;;;;;;;1.13;0.60;;;10.50;98.40;;;;;;20818790;28;20230;-67
2022/04/03 15:08:48;;;;;;;1.20;0.50;;;;;;;;;;20810528;22;20271;-66
2022/04/03 15:18:50;;;;;;;1.87;0.40;;;;;;;;;;20654977;28;20216;-67
2022/04/03 15:28:53;;;;;;;0.53;0.40;;;;;;;;;;20651335;28;20284;-67
2022/04/03 15:39:02;;;;;;;2.60;1.40;;;10.50;99.90;;;;;;20624682;28;20683;-67
2022/04/03 15:49:05;;;;;;;0.77;0.77;;;10.30;99.90;;;;;;20635027;28;20291;-66
2022/04/03 15:59:07;;;;;;;0.97;0.50;;;;;;;;;;20649862;28;20274;-66
2022/04/03 16:09:09;;;;;;;0.87;0.50;;;;;;;;;;20617148;28;20232;-66
2022/04/03 16:19:11;;;;;;;0.70;0.40;;;;;;;;;;20612402;28;20219;-66
2022/04/03 16:29:13;;;;;;;1.20;0.70;;;;;;;;;;20646034;28;20290;-66
2022/04/03 16:39:15;;;;;;;1.90;0.90;;;;;;;;;;20631655;28;20207;-66
2022/04/03 16:49:17;;;;;;;0.77;0.43;;;;;;;;;;20568295;28;20275;-67
2022/04/03 16:59:22;;;;;;;0.50;0.20;;;;;;;;;;20644248;28;20915;-66
2022/04/03 17:09:23;;;;;;;1.67;1.00;;;;;;;;;;20645290;28;20216;-67
2022/04/03 17:19:25;;;;;;;0.93;0.70;;;;;;;;;;20629092;28;20204;-67
2022/04/03 17:29:27;;;;;;;0.80;0.63;;;;;;;;;;20627490;28;20217;-67
2022/04/03 17:39:29;;;;;;;0.53;0.50;;;;;;;;;;20589982;28;20286;-66
2022/04/03 17:49:31;;;;;;;0.80;0.57;;;8.30;99.90;;;;;;20626817;28;20219;-66
2022/04/03 17:59:33;;;;;;;1.00;0.70;;;;;;;;;;20620251;28;20212;-67
2022/04/03 18:09:35;;;;;;;0.50;0.40;;;;;;;;;;20616121;28;20291;-66
2022/04/03 18:19:37;;;;;;;2.67;0.70;;;;;;;;;;20614349;28;20219;-66
2022/04/03 18:29:39;;;;;;;0.50;0.30;;;;;;;;;;20620645;28;20289;-66
2022/04/03 18:39:41;;;;;;;0.43;0.40;;;;;;;;;;20642969;28;20232;-66
2022/04/03 18:49:44;;;;;;;1.83;0.70;;;;;;;;;;20644904;28;20239;-66
2022/04/03 18:59:46;;;;;;;1.20;0.70;;;;;;;;;;20651566;28;20781;-66
2022/04/03 19:09:48;;;;;;;1.20;0.80;;;;;;;;;;20654305;28;20223;-66
2022/04/03 19:19:50;;;;;;;1.47;0.60;;;;;;;;;;20622206;28;20224;-66
2022/04/03 19:29:53;;;;;;;0.90;0.57;;;;;;;;;;20634265;28;20698;-66
2022/04/03 19:39:55;;;;;;;0.97;0.60;;;;;;;;;;20636646;28;20635;-67
2022/04/03 19:49:57;;;;;;;1.20;0.77;;;;;;;;;;20635679;28;20228;-66
2022/04/03 20:00:00;;;;;;;1.33;0.97;;;;;;;;;;20651068;28;20313;-66
2022/04/03 20:10:03;;;;;;;2.77;1.30;;;;;;;;;;20627945;28;20282;-66
2022/04/03 20:20:09;;;;;;;2.87;1.80;;;6.90;99.90;;;;;;20629889;28;20263;-66
2022/04/03 20:30:10;;;;;;;1.43;0.90;;;6.70;99.90;;;;;;20664888;28;20216;-66
2022/04/03 20:40:12;;;;;;;1.90;1.20;;;6.70;99.90;;;;;;20612893;28;20277;-66
2022/04/03 20:50:14;;;;;;;2.70;1.07;;;;;;;;;;20592350;28;20228;-65
2022/04/03 21:00:16;;;;;;;1.60;1.03;;;;;;;;;;20603810;28;20720;-66
2022/04/03 21:10:20;;;;;;;2.83;1.00;;;;;;;;;;20668885;23;20267;-86
2022/04/03 21:20:22;;;;;;;1.20;0.70;;;;;;;;;;20647944;28;20275;-86
2022/04/03 21:30:24;;;;;;;0.80;0.50;;;;;;;;;;20648270;28;20219;-84
2022/04/03 21:40:25;;;;;;;1.43;0.80;;;;;;;;;;20632333;28;20216;-86
2022/04/03 21:50:30;;;;;;;0.87;0.60;;;;;;;;;;20653918;28;20216;-85
2022/04/03 22:00:39;;;;;;;1.33;0.93;;;;;;;;;;20628077;28;20247;-86
2022/04/03 22:10:41;;;;;;;2.17;0.87;;;;;;;;;;20625569;28;20219;-87
2022/04/03 22:20:44;;;;;;;1.37;0.77;;;;;;;;;;20610936;28;20212;-85
2022/04/03 22:30:52;;;;;;;0.77;0.77;;;;;;;;;;20626386;28;20278;-84
2022/04/03 22:40:54;;;;;;;1.67;1.00;;;;;;;;;;20642276;28;20216;-84
2022/04/03 22:50:56;;;;;;;1.33;0.80;;;;;;;;;;20643803;28;20783;-84
2022/04/03 23:00:58;;;;;;;1.20;1.00;;;;;;;;;;20625904;28;20278;-85
2022/04/03 23:11:00;;;;;;;1.23;0.70;;;;;;;;;;20638214;28;20266;-84
2022/04/03 23:21:02;;;;;;;2.13;1.00;;;;;;;;;;20642071;28;20254;-84
2022/04/03 23:31:03;;;;;;;1.47;0.80;;;;;;;;;;20651770;28;20223;-84
2022/04/03 23:41:06;;;;;;;1.53;0.83;;;;;;;;;;20592312;28;20249;-85
2022/04/03 23:51:08;;;;;;;0.93;0.80;;;;;;;;;;20591841;28;20570;-85
